Ten Mile, TN (37880)

1:53 PM EST on January 23, 2017 (GMT -0500)
| | Change Station
Active Advisory: Wind Advisory

Elev -9999 ft 0.00 °N, 0.00 °E | Updated 11 minutes ago

Overcast
Overcast
°F
Feels Like °F
N
Wind Variable Wind from North
Gusts mph

Today
High -- | Low -- °F
--% Chance of Precip.
Yesterday
High -- | Low -- °F
Precip. -- in
Pressure 29.49 in
Visibility 4.0 miles
Clouds Overcast 500 ft
Dew Point Not available.
Humidity Not available.
Rainfall --
Snow Depth Not available.
7:44 AM 5:57 PM
Waning Crescent, 17% visible
METAR KCSV 231753Z AUTO 32015G25KT 4SM BR OVC005 08/07 A2950 RMK AO2 PK WND 32030/1657 SLP984 60003 T00830072 10106 20083 51024
Pressure 29.49 in
Visibility 4.0 miles
Clouds Overcast 500 ft
Dew Point Not available.
Humidity Not available.
Rainfall --
Snow Depth Not available.
7:44 AM 5:57 PM
Waning Crescent, 17% visible
METAR KCSV 231753Z AUTO 32015G25KT 4SM BR OVC005 08/07 A2950 RMK AO2 PK WND 32030/1657 SLP984 60003 T00830072 10106 20083 51024

Get Your Daily Forecast Email!

Thanks for signing up!

Be on the lookout for a verification email in your inbox.

You'll start receiving the daily forecast at 8 AM.

×

10-Day Weather Forecast

Almanac

Astronomy

Jan. 23, 2017 Rise Set
Actual Time
Civil Twilight
Nautical Twilight
Astronomical Twilight
Moon
Length of Visible Light
Length of Day
Tomorrow will be .
, % of the Moon is Illuminated

Today's Extremes

State Highs State Lows

Community

WunderPhotos

Upload Photos

1,962,540 photos uploaded!

WunderBlog® & News

Nearby

Air Quality

  Air Quality AQ Index Pollutant
Not available.

Snow Depth

Station Depth Elevation

Earthquake Activity

City Distance Mag. Time & Date
Minimum magnitude displayed is 2.5.

Coastal Water Temperatures

Place Temperature

Stations

Nearby Weather Stations

Station Location Temp. Windchill Dew Point Humidity Wind Precip. Elev Updated Type
                   

Watches & Warnings

Wind Advisory
Issued: 8:44 AM CST Jan. 23, 2017 – National Weather Service

... Wind Advisory remains in effect until 7 PM EST /6 PM CST/ this
evening...

* event... sustained winds of 15 to 30 mph... with gusts up to 40
mph.

* Timing... tonight through Monday evening.

* Impacts... isolated downed trees and power lines will be
possible... especially with the recent rainfall
accumulations... and unsecured outdoor objects may be blown over.
Driving may be difficult for high profile vehicles.

Precautionary/preparedness actions...

A Wind Advisory means that winds of 26 to 39 mph and/or gusts of
40 to 57 mph are expected or occurring. Winds this strong can
make driving difficult... especially for high profile vehicles.
Use extra caution.